createdAt,value
2023-05-16T00:00:02.116Z,12.60
2023-05-16T00:02:42.112Z,11.20
2023-05-16T00:05:18.161Z,9.90
2023-05-16T00:07:57.152Z,11.45
2023-05-16T00:10:34.642Z,11.20
2023-05-16T00:13:14.622Z,11.10
2023-05-16T00:15:55.739Z,13.63
2023-05-16T00:18:30.607Z,10.57
2023-05-16T00:21:05.474Z,11.60
2023-05-16T00:23:45.357Z,10.57
2023-05-16T00:28:57.864Z,11.52
2023-05-16T00:31:39.077Z,9.13
2023-05-16T00:34:13.198Z,9.38
2023-05-16T00:36:50.312Z,9.80
2023-05-16T00:39:29.349Z,8.98
2023-05-16T00:42:07.330Z,10.45
2023-05-16T00:44:48.149Z,8.30
2023-05-16T00:47:30.880Z,9.40
2023-05-16T00:50:13.650Z,8.07
2023-05-16T00:52:48.587Z,9.23
2023-05-16T00:55:26.035Z,9.32
2023-05-16T00:58:03.066Z,9.02
2023-05-16T01:00:38.060Z,9.10
2023-05-16T01:03:15.391Z,8.50
2023-05-16T01:05:54.382Z,9.68
2023-05-16T01:08:28.785Z,9.48
2023-05-16T01:11:17.547Z,11.18
2023-05-16T01:14:20.988Z,9.88
2023-05-16T01:17:13.198Z,9.32
2023-05-16T01:20:05.502Z,9.77
2023-05-16T01:25:46.886Z,10.23
2023-05-16T01:28:22.072Z,9.95
2023-05-16T01:30:58.303Z,10.77
2023-05-16T01:33:33.725Z,9.43
2023-05-16T01:36:33.005Z,9.57
2023-05-16T01:39:32.330Z,10.68
2023-05-16T01:42:11.553Z,11.32
2023-05-16T01:44:51.591Z,11.20
2023-05-16T01:47:34.198Z,9.25
2023-05-16T01:50:25.042Z,9.48
2023-05-16T01:53:12.796Z,11.38
2023-05-16T01:58:28.383Z,9.13
2023-05-16T02:01:10.791Z,9.95
2023-05-16T02:03:48.807Z,11.13
2023-05-16T02:06:26.935Z,12.10
2023-05-16T02:09:09.917Z,12.20
2023-05-16T02:11:47.986Z,16.98
2023-05-16T02:14:26.330Z,11.00
2023-05-16T02:17:03.382Z,11.60
2023-05-16T02:19:41.076Z,10.40
2023-05-16T02:22:19.657Z,11.40
2023-05-16T02:25:16.473Z,11.50
2023-05-16T02:28:00.349Z,11.20
2023-05-16T02:30:39.511Z,12.75
2023-05-16T02:33:20.924Z,11.43
2023-05-16T02:35:56.693Z,11.57
2023-05-16T02:38:36.075Z,11.65
2023-05-16T02:41:13.884Z,12.75
2023-05-16T02:43:52.088Z,12.85
2023-05-16T02:46:34.772Z,14.15
2023-05-16T02:49:14.707Z,11.07
2023-05-16T02:51:51.547Z,11.43
2023-05-16T02:54:29.118Z,12.57
2023-05-16T02:57:06.730Z,13.20
2023-05-16T02:59:47.248Z,15.10
2023-05-16T03:02:27.816Z,14.13
2023-05-16T03:05:02.349Z,12.75
2023-05-16T03:07:42.485Z,11.73
2023-05-16T03:10:22.564Z,12.63
2023-05-16T03:12:58.982Z,14.35
2023-05-16T03:15:39.098Z,11.38
2023-05-16T03:18:13.785Z,11.73
2023-05-16T03:20:53.438Z,9.13
2023-05-16T03:23:27.905Z,10.57
2023-05-16T03:26:04.682Z,10.48
2023-05-16T03:28:42.159Z,12.18
2023-05-16T03:31:17.023Z,10.45
2023-05-16T03:33:52.547Z,12.95
2023-05-16T03:36:32.194Z,11.02
2023-05-16T03:39:09.199Z,14.55
2023-05-16T03:41:44.166Z,12.38
2023-05-16T03:44:21.857Z,13.27
2023-05-16T03:46:58.653Z,9.63
2023-05-16T03:49:35.318Z,9.98
2023-05-16T03:52:15.010Z,11.18
2023-05-16T03:54:54.631Z,13.10
2023-05-16T03:57:31.162Z,8.45
2023-05-16T04:00:13.139Z,10.73
2023-05-16T04:02:47.690Z,12.68
2023-05-16T04:05:22.787Z,14.93
2023-05-16T04:08:02.792Z,10.50
2023-05-16T04:10:42.672Z,10.75
2023-05-16T04:13:19.658Z,12.32
2023-05-16T04:15:59.050Z,8.57
2023-05-16T04:18:36.510Z,9.20
2023-05-16T04:21:15.554Z,9.68
2023-05-16T04:23:52.579Z,9.63
2023-05-16T04:26:34.300Z,11.20
2023-05-16T04:29:12.372Z,9.63
2023-05-16T04:31:49.825Z,8.82
2023-05-16T04:34:28.506Z,8.00
2023-05-16T04:37:05.818Z,9.45
2023-05-16T04:39:43.410Z,10.10
2023-05-16T04:42:18.839Z,9.18
2023-05-16T04:44:56.924Z,10.55
2023-05-16T04:47:34.567Z,10.02
2023-05-16T04:50:16.515Z,7.90
2023-05-16T04:52:56.427Z,11.23
2023-05-16T04:55:33.604Z,7.60
2023-05-16T04:58:08.770Z,9.13
2023-05-16T05:00:45.846Z,10.40
2023-05-16T05:03:28.428Z,15.55
2023-05-16T05:06:05.675Z,8.23
2023-05-16T05:08:46.302Z,8.05
2023-05-16T05:11:25.004Z,8.20
2023-05-16T05:14:04.870Z,8.38
2023-05-16T05:16:39.617Z,10.07
2023-05-16T05:19:17.867Z,9.43
2023-05-16T05:21:52.403Z,8.48
2023-05-16T05:24:27.121Z,7.68
2023-05-16T05:27:02.169Z,10.05
2023-05-16T05:29:36.933Z,9.25
2023-05-16T05:32:12.229Z,9.00
2023-05-16T05:34:46.545Z,9.27
2023-05-16T05:37:26.014Z,10.18
2023-05-16T05:40:05.329Z,8.43
2023-05-16T05:42:42.769Z,9.50
2023-05-16T05:45:23.933Z,8.52
2023-05-16T05:48:00.815Z,9.15
2023-05-16T05:50:38.959Z,9.82
2023-05-16T05:53:16.215Z,10.77
2023-05-16T05:56:02.160Z,8.15
2023-05-16T05:58:37.683Z,8.68
2023-05-16T06:06:30.682Z,9.27
2023-05-16T06:09:05.466Z,9.73
2023-05-16T06:11:43.890Z,7.43
2023-05-16T06:14:18.606Z,8.02
2023-05-16T06:16:58.195Z,11.95
2023-05-16T06:19:35.066Z,8.88
2023-05-16T06:22:15.716Z,8.23
2023-05-16T06:24:50.006Z,8.57
2023-05-16T06:27:34.948Z,8.50
2023-05-16T06:30:11.938Z,7.32
2023-05-16T06:32:47.403Z,7.90
2023-05-16T06:37:48.605Z,10.10
2023-05-16T06:40:22.987Z,6.90
2023-05-16T06:42:54.680Z,6.40
2023-05-16T06:45:25.114Z,7.85
2023-05-16T06:47:57.792Z,7.43
2023-05-16T06:52:58.405Z,8.45
2023-05-16T06:55:32.568Z,7.03
2023-05-16T06:58:01.940Z,8.25
2023-05-16T07:00:36.627Z,9.40
2023-05-16T07:03:10.281Z,9.02
2023-05-16T07:05:42.460Z,12.02
2023-05-16T07:08:15.995Z,6.93
2023-05-16T07:10:47.854Z,8.45
2023-05-16T07:13:17.122Z,7.90
2023-05-16T07:15:48.997Z,6.53
2023-05-16T07:18:20.178Z,9.63
2023-05-16T07:20:53.140Z,6.88
2023-05-16T07:23:27.634Z,8.52
2023-05-16T07:26:03.696Z,9.30
2023-05-16T07:28:35.155Z,8.57
2023-05-16T07:31:09.089Z,7.78
2023-05-16T07:33:38.034Z,8.15
2023-05-16T07:36:16.938Z,8.68
2023-05-16T07:38:49.582Z,7.32
2023-05-16T07:41:18.732Z,8.27
2023-05-16T07:43:52.862Z,7.88
2023-05-16T07:46:22.525Z,10.45
2023-05-16T07:48:56.638Z,9.48
2023-05-16T07:51:33.521Z,9.27
2023-05-16T07:54:02.562Z,8.63
2023-05-16T07:56:36.706Z,8.15
2023-05-16T07:59:11.382Z,7.72
2023-05-16T08:01:42.040Z,10.35
2023-05-16T08:04:13.098Z,8.80
2023-05-16T08:06:50.188Z,8.95
2023-05-16T08:09:22.312Z,9.95
2023-05-16T08:11:52.996Z,9.77
2023-05-16T08:14:26.661Z,9.52
2023-05-16T08:16:59.008Z,9.40
2023-05-16T08:19:33.630Z,11.68
2023-05-16T08:22:05.716Z,8.45
2023-05-16T08:27:13.636Z,9.35
2023-05-16T08:29:45.164Z,8.25
2023-05-16T08:32:19.080Z,8.95
2023-05-16T08:34:50.302Z,7.32
2023-05-16T08:37:24.126Z,7.65
2023-05-16T08:39:56.831Z,9.30
2023-05-16T08:42:32.403Z,6.63
2023-05-16T08:45:07.767Z,7.88
2023-05-16T08:47:42.064Z,7.00
2023-05-16T08:50:13.282Z,8.10
2023-05-16T08:52:48.948Z,7.60
2023-05-16T08:55:20.615Z,7.85
2023-05-16T08:57:53.213Z,5.97
2023-05-16T09:00:29.648Z,6.53
2023-05-16T09:03:06.618Z,6.95
2023-05-16T09:05:43.009Z,6.45
2023-05-16T09:08:15.757Z,7.90
2023-05-16T09:10:52.202Z,7.05
2023-05-16T09:13:28.991Z,6.25
2023-05-16T09:16:15.280Z,12.02
2023-05-16T09:18:59.167Z,7.47
2023-05-16T09:21:34.971Z,7.07
2023-05-16T09:24:11.541Z,5.93
2023-05-16T09:26:55.091Z,8.88
2023-05-16T09:29:28.104Z,7.70
2023-05-16T09:32:10.869Z,8.80
2023-05-16T09:34:50.965Z,6.45
2023-05-16T09:37:20.837Z,5.18
2023-05-16T09:39:57.938Z,12.48
2023-05-16T09:42:27.251Z,9.75
2023-05-16T09:44:59.489Z,6.22
2023-05-16T09:47:33.526Z,6.30
2023-05-16T09:50:09.421Z,6.97
2023-05-16T09:52:39.938Z,7.47
2023-05-16T09:55:17.949Z,6.97
2023-05-16T09:57:48.282Z,5.97
2023-05-16T10:00:22.722Z,6.28
2023-05-16T10:02:54.054Z,6.68
2023-05-16T10:05:32.410Z,5.57
2023-05-16T10:08:07.310Z,6.63
2023-05-16T10:10:42.361Z,6.90
2023-05-16T10:13:13.999Z,6.65
2023-05-16T10:15:43.836Z,5.90
2023-05-16T10:18:19.029Z,6.47
2023-05-16T10:20:54.454Z,5.85
2023-05-16T10:23:31.889Z,6.90
2023-05-16T10:26:15.376Z,6.40
2023-05-16T10:28:46.874Z,7.35
2023-05-16T10:31:22.806Z,8.07
2023-05-16T10:33:55.265Z,7.22
2023-05-16T10:36:32.950Z,9.20
2023-05-16T10:39:05.341Z,6.30
2023-05-16T10:41:37.218Z,7.40
2023-05-16T10:44:22.322Z,6.90
2023-05-16T10:46:54.412Z,6.30
2023-05-16T10:49:32.504Z,9.45
2023-05-16T10:52:11.703Z,6.30
2023-05-16T10:54:45.864Z,6.43
2023-05-16T10:57:24.794Z,7.38
2023-05-16T11:00:02.538Z,7.20
2023-05-16T11:02:42.322Z,8.23
2023-05-16T11:05:19.616Z,6.95
2023-05-16T11:08:08.110Z,7.20
2023-05-16T11:10:41.766Z,5.95
2023-05-16T11:13:10.807Z,6.57
2023-05-16T11:15:42.436Z,8.13
2023-05-16T11:18:19.490Z,7.50
2023-05-16T11:21:04.269Z,6.85
2023-05-16T11:23:36.818Z,5.85
2023-05-16T11:26:13.814Z,8.05
2023-05-16T11:28:54.676Z,6.35
2023-05-16T11:31:29.897Z,6.72
2023-05-16T11:33:59.326Z,6.22
2023-05-16T11:36:32.862Z,5.70
2023-05-16T11:39:10.033Z,7.50
2023-05-16T11:41:45.789Z,6.25
2023-05-16T11:44:18.037Z,8.57
2023-05-16T11:46:47.366Z,6.40
2023-05-16T11:52:00.788Z,7.00
2023-05-16T11:54:35.230Z,6.20
2023-05-16T11:57:09.410Z,7.05
2023-05-16T11:59:40.762Z,7.00
2023-05-16T12:02:16.643Z,6.25
2023-05-16T12:04:54.031Z,5.93
2023-05-16T12:07:29.476Z,7.40
2023-05-16T12:10:05.316Z,7.22
2023-05-16T12:12:40.821Z,5.68
2023-05-16T12:15:19.759Z,6.38
2023-05-16T12:17:52.729Z,9.82
2023-05-16T12:20:26.573Z,7.68
2023-05-16T12:22:59.639Z,5.55
2023-05-16T12:25:38.108Z,7.10
2023-05-16T12:28:09.611Z,7.32
2023-05-16T12:30:43.868Z,8.48
2023-05-16T12:33:16.991Z,8.48
2023-05-16T12:35:49.676Z,8.80
2023-05-16T12:38:26.967Z,10.30
2023-05-16T12:40:59.803Z,6.93
2023-05-16T12:43:33.576Z,8.90
2023-05-16T12:46:12.042Z,10.30
2023-05-16T12:48:48.590Z,8.38
2023-05-16T12:51:21.093Z,7.80
2023-05-16T12:54:01.270Z,9.63
2023-05-16T12:56:44.455Z,6.53
2023-05-16T12:59:16.095Z,6.82
2023-05-16T13:01:47.540Z,7.18
2023-05-16T13:04:23.570Z,6.82
2023-05-16T13:09:32.878Z,7.20
2023-05-16T13:12:11.927Z,7.30
2023-05-16T13:14:43.977Z,7.82
2023-05-16T13:17:16.043Z,7.95
2023-05-16T13:19:49.035Z,7.90
2023-05-16T13:22:22.057Z,6.28
2023-05-16T13:25:01.360Z,7.35
2023-05-16T13:27:34.624Z,6.43
2023-05-16T13:30:07.940Z,9.70
2023-05-16T13:32:41.836Z,9.55
2023-05-16T13:35:11.239Z,8.63
2023-05-16T13:37:44.155Z,6.50
2023-05-16T13:40:18.914Z,8.35
2023-05-16T13:42:52.554Z,8.35
2023-05-16T13:45:26.985Z,5.90
2023-05-16T13:48:03.405Z,6.47
2023-05-16T13:50:35.353Z,9.93
2023-05-16T13:53:04.987Z,6.30
2023-05-16T13:55:36.318Z,6.68
2023-05-16T13:58:07.921Z,7.95
2023-05-16T14:00:45.649Z,6.57
2023-05-16T14:03:19.755Z,7.32
2023-05-16T14:05:49.034Z,8.55
2023-05-16T14:08:21.099Z,8.23
2023-05-16T14:10:55.042Z,5.65
2023-05-16T14:13:24.417Z,5.93
2023-05-16T14:15:53.874Z,6.93
2023-05-16T14:18:28.910Z,8.98
2023-05-16T14:20:57.986Z,8.13
2023-05-16T14:23:29.724Z,7.13
2023-05-16T14:26:07.475Z,7.22
2023-05-16T14:28:37.039Z,8.93
2023-05-16T14:31:12.129Z,6.25
2023-05-16T14:33:44.421Z,7.00
2023-05-16T14:36:15.902Z,8.70
2023-05-16T14:38:49.993Z,7.07
2023-05-16T14:41:21.883Z,6.82
2023-05-16T14:46:24.311Z,6.97
2023-05-16T14:48:55.895Z,8.43
2023-05-16T14:51:24.888Z,5.78
2023-05-16T14:53:56.250Z,7.88
2023-05-16T14:56:31.007Z,10.32
2023-05-16T14:59:06.902Z,8.40
2023-05-16T15:04:14.561Z,8.60
2023-05-16T15:06:46.979Z,6.00
2023-05-16T15:09:19.581Z,5.30
2023-05-16T15:11:53.299Z,7.47
2023-05-16T15:14:27.806Z,8.60
2023-05-16T15:16:56.691Z,7.60
2023-05-16T15:19:29.395Z,8.02
2023-05-16T15:21:59.274Z,13.10
2023-05-16T15:24:33.320Z,10.20
2023-05-16T15:27:08.341Z,9.13
2023-05-16T15:29:45.935Z,7.18
2023-05-16T15:32:14.851Z,8.32
2023-05-16T15:34:48.430Z,9.18
2023-05-16T15:37:23.420Z,6.28
2023-05-16T15:42:26.271Z,6.93
2023-05-16T15:44:58.130Z,9.75
2023-05-16T15:47:31.028Z,6.90
2023-05-16T15:50:06.393Z,7.20
2023-05-16T15:52:43.023Z,8.10
2023-05-16T15:55:22.525Z,6.28
2023-05-16T15:57:57.898Z,6.93
2023-05-16T16:00:30.624Z,7.53
2023-05-16T16:03:05.489Z,8.15
2023-05-16T16:05:35.030Z,7.00
2023-05-16T16:08:09.817Z,7.93
2023-05-16T16:10:39.991Z,8.38
2023-05-16T16:13:12.914Z,7.95
2023-05-16T16:15:42.856Z,7.85
2023-05-16T16:18:14.604Z,7.38
2023-05-16T16:20:47.091Z,6.07
2023-05-16T16:23:18.822Z,8.65
2023-05-16T16:25:57.597Z,8.15
2023-05-16T16:32:06.572Z,10.82
2023-05-16T16:34:38.192Z,9.77
2023-05-16T16:37:07.619Z,7.30
2023-05-16T16:39:39.362Z,10.20
2023-05-16T16:42:11.923Z,9.38
2023-05-16T16:44:41.053Z,7.18
2023-05-16T16:47:13.018Z,9.23
2023-05-16T16:49:46.084Z,7.38
2023-05-16T16:52:23.784Z,9.30
2023-05-16T16:54:57.700Z,11.20
2023-05-16T16:57:29.977Z,8.23
2023-05-16T17:00:07.897Z,7.90
2023-05-16T17:02:39.830Z,11.48
2023-05-16T17:05:12.654Z,7.32
2023-05-16T17:07:45.254Z,9.18
2023-05-16T17:10:14.589Z,11.15
2023-05-16T17:12:55.146Z,9.52
2023-05-16T17:15:25.022Z,8.65
2023-05-16T17:17:56.827Z,8.57
2023-05-16T17:20:31.068Z,8.93
2023-05-16T17:23:03.355Z,10.60
2023-05-16T17:25:43.775Z,9.88
2023-05-16T17:28:13.178Z,8.82
2023-05-16T17:30:42.363Z,10.23
2023-05-16T17:33:17.162Z,8.35
2023-05-16T17:35:54.566Z,7.88
2023-05-16T17:38:26.447Z,11.52
2023-05-16T17:40:59.029Z,10.98
2023-05-16T17:43:31.799Z,9.15
2023-05-16T17:46:04.789Z,8.15
2023-05-16T17:48:34.620Z,7.95
2023-05-16T17:51:08.613Z,7.15
2023-05-16T17:53:43.982Z,9.10
2023-05-16T17:58:47.057Z,9.00
2023-05-16T18:01:22.665Z,8.23
2023-05-16T18:03:58.266Z,8.05
2023-05-16T18:06:48.966Z,10.23
2023-05-16T18:09:19.547Z,7.68
2023-05-16T18:11:49.589Z,9.65
2023-05-16T18:14:18.777Z,8.45
2023-05-16T18:16:48.318Z,8.80
2023-05-16T18:19:17.697Z,7.30
2023-05-16T18:21:49.274Z,8.50
2023-05-16T18:24:18.627Z,10.52
2023-05-16T18:26:53.442Z,8.90
2023-05-16T18:29:25.117Z,6.18
2023-05-16T18:31:58.288Z,6.18
2023-05-16T18:34:30.240Z,6.50
2023-05-16T18:36:59.520Z,7.30
2023-05-16T18:39:32.333Z,8.30
2023-05-16T18:42:06.542Z,7.22
2023-05-16T18:44:38.935Z,6.53
2023-05-16T18:47:11.482Z,8.48
2023-05-16T18:49:41.067Z,8.95
2023-05-16T18:52:16.693Z,7.63
2023-05-16T18:54:45.951Z,6.30
2023-05-16T18:57:22.714Z,6.85
2023-05-16T18:59:57.184Z,6.22
2023-05-16T19:02:41.021Z,6.38
2023-05-16T19:05:16.044Z,7.20
2023-05-16T19:07:47.859Z,6.90
2023-05-16T19:10:17.335Z,7.00
2023-05-16T19:12:51.980Z,8.63
2023-05-16T19:15:23.990Z,6.28
2023-05-16T19:20:24.603Z,7.28
2023-05-16T19:22:56.401Z,7.00
2023-05-16T19:25:32.156Z,6.28
2023-05-16T19:28:05.323Z,10.43
2023-05-16T19:33:12.535Z,10.65
2023-05-16T19:35:42.373Z,6.75
2023-05-16T19:38:11.469Z,9.23
2023-05-16T19:40:40.789Z,8.07
2023-05-16T19:43:12.199Z,9.73
2023-05-16T19:45:43.642Z,7.90
2023-05-16T19:48:15.367Z,8.85
2023-05-16T19:50:47.054Z,9.65
2023-05-16T19:53:16.739Z,12.40
2023-05-16T19:55:49.915Z,9.68
2023-05-16T19:58:23.800Z,7.25
2023-05-16T20:00:52.917Z,10.23
2023-05-16T20:03:25.122Z,11.07
2023-05-16T20:05:58.274Z,12.07
2023-05-16T20:08:30.422Z,13.20
2023-05-16T20:11:07.463Z,8.80
2023-05-16T20:13:36.600Z,9.13
2023-05-16T20:16:11.566Z,8.50
2023-05-16T20:18:43.376Z,11.32
2023-05-16T20:21:12.933Z,8.63
2023-05-16T20:23:46.529Z,9.10
2023-05-16T20:26:22.291Z,10.63
2023-05-16T20:28:59.045Z,12.02
2023-05-16T20:31:30.728Z,10.07
2023-05-16T20:33:59.758Z,10.20
2023-05-16T20:36:34.387Z,10.88
2023-05-16T20:39:09.606Z,11.85
2023-05-16T20:41:41.278Z,10.70
2023-05-16T20:44:10.070Z,10.23
2023-05-16T20:47:14.883Z,10.77
2023-05-16T20:49:53.077Z,9.85
2023-05-16T20:52:27.152Z,13.32
2023-05-16T20:55:01.990Z,10.25
2023-05-16T20:57:36.636Z,12.50
2023-05-16T21:00:06.210Z,12.25
2023-05-16T21:02:35.727Z,11.40
2023-05-16T21:05:24.109Z,11.15
2023-05-16T21:08:00.022Z,11.20
2023-05-16T21:10:29.280Z,12.18
2023-05-16T21:13:00.877Z,9.73
2023-05-16T21:15:32.061Z,10.15
2023-05-16T21:18:03.529Z,10.82
2023-05-16T21:20:37.213Z,11.48
2023-05-16T21:23:07.165Z,13.27
2023-05-16T21:25:42.738Z,15.07
2023-05-16T21:28:12.581Z,15.20
2023-05-16T21:30:49.228Z,13.93
2023-05-16T21:33:20.723Z,21.63
2023-05-16T21:35:53.867Z,17.65
2023-05-16T21:38:28.005Z,14.77
2023-05-16T21:41:00.653Z,16.10
2023-05-16T21:43:31.749Z,18.38
2023-05-16T21:46:02.950Z,15.52
2023-05-16T21:48:34.394Z,18.75
2023-05-16T21:51:08.566Z,16.15
2023-05-16T21:53:39.847Z,15.68
2023-05-16T21:56:08.619Z,17.90
2023-05-16T21:58:43.018Z,19.30
2023-05-16T22:01:12.115Z,15.30
2023-05-16T22:03:41.535Z,18.42
2023-05-16T22:06:10.932Z,15.70
2023-05-16T22:08:40.063Z,12.55
2023-05-16T22:11:17.933Z,15.80
2023-05-16T22:13:50.846Z,17.42
2023-05-16T22:16:22.651Z,15.13
2023-05-16T22:18:51.729Z,15.15
2023-05-16T22:21:28.948Z,12.15
2023-05-16T22:24:04.074Z,13.25
2023-05-16T22:26:33.663Z,11.77
2023-05-16T22:29:05.341Z,11.10
2023-05-16T22:34:14.125Z,10.38
2023-05-16T22:36:43.396Z,10.35
2023-05-16T22:39:13.259Z,10.88
2023-05-16T22:41:47.732Z,11.65
2023-05-16T22:44:21.737Z,12.90
2023-05-16T22:46:53.832Z,12.45
2023-05-16T22:49:36.788Z,11.98
2023-05-16T22:52:08.914Z,8.55
2023-05-16T22:54:37.872Z,11.77
2023-05-16T22:57:10.260Z,8.82
2023-05-16T22:59:48.956Z,12.32
2023-05-16T23:02:23.306Z,13.82
2023-05-16T23:04:54.343Z,14.20
2023-05-16T23:07:26.127Z,12.15
2023-05-16T23:09:55.062Z,12.70
2023-05-16T23:12:25.850Z,11.82
2023-05-16T23:14:59.001Z,10.95
2023-05-16T23:17:30.800Z,12.32
2023-05-16T23:20:05.245Z,11.55
2023-05-16T23:22:37.237Z,12.18
2023-05-16T23:25:14.117Z,8.93
2023-05-16T23:27:49.208Z,9.38
2023-05-16T23:30:23.336Z,10.90
2023-05-16T23:32:57.458Z,16.70
2023-05-16T23:35:28.706Z,15.57
2023-05-16T23:38:03.801Z,11.48
2023-05-16T23:40:32.757Z,13.98
2023-05-16T23:43:04.372Z,11.60
2023-05-16T23:45:36.306Z,11.18
2023-05-16T23:48:13.049Z,13.65
2023-05-16T23:50:48.442Z,15.23
2023-05-16T23:53:17.554Z,16.88
2023-05-16T23:55:52.026Z,14.77
2023-05-16T23:58:23.487Z,12.32
